Time;durP1;ratioP1;P1;durP2;ratioP2;P2;SDS_P1;SDS_P2;PMS_P1;PMS_P2;Temp;Humidity;BMP_temperature;BMP_pressure;BME280_temperature;BME280_humidity;BME280_pressure;Samples;Min_cycle;Max_cycle;Signal;HPM_P1;HPM_P2
2021/05/03 00:02:11;;;;;;;7.00;1.35;;;;;;;24.45;41.44;99595.00;4484083;32;34624;-59
2021/05/03 00:04:38;;;;;;;5.28;1.40;;;;;;;24.43;41.48;99590.63;4482795;32;33813;-59
2021/05/03 00:07:05;;;;;;;6.85;1.55;;;;;;;24.44;41.57;99602.38;4484416;32;33770;-59
2021/05/03 00:09:33;;;;;;;6.07;1.42;;;;;;;24.43;41.57;99600.69;4482611;32;33290;-61
2021/05/03 00:12:01;;;;;;;8.98;1.50;;;;;;;24.42;41.54;99608.03;4472867;32;33857;-59
2021/05/03 00:14:28;;;;;;;4.40;1.37;;;;;;;24.42;41.55;99613.50;4480235;32;34795;-59
2021/05/03 00:16:55;;;;;;;5.20;1.40;;;;;;;24.43;41.50;99603.41;4484157;32;33987;-60
2021/05/03 00:19:22;;;;;;;6.78;1.73;;;;;;;24.41;41.54;99603.66;4483572;32;33217;-59
2021/05/03 00:21:49;;;;;;;5.25;1.60;;;;;;;24.41;41.59;99609.12;4484320;31;34006;-59
2021/05/03 00:24:16;;;;;;;6.45;1.50;;;;;;;24.41;41.62;99620.03;4484128;32;33906;-57
2021/05/03 00:26:44;;;;;;;3.55;1.40;;;;;;;24.40;41.65;99620.28;4481400;32;34194;-58
2021/05/03 00:29:11;;;;;;;5.78;1.27;;;;;;;24.40;41.52;99625.72;4468357;32;33564;-59
2021/05/03 00:31:38;;;;;;;4.10;1.40;;;;;;;24.41;41.57;99628.22;4468406;32;33992;-60
2021/05/03 00:34:05;;;;;;;4.20;1.60;;;;;;;24.40;41.77;99623.00;4468237;32;33931;-57
2021/05/03 00:36:32;;;;;;;5.18;1.55;;;;;;;24.40;41.71;99629.28;4482588;32;34495;-60
2021/05/03 00:39:07;;;;;;;8.05;1.00;;;;;;;24.40;41.76;99628.44;4484101;32;33282;-59
2021/05/03 00:41:34;;;;;;;4.90;1.15;;;;;;;24.40;41.73;99631.19;4483758;32;33561;-60
2021/05/03 00:44:02;;;;;;;4.75;1.42;;;;;;;24.40;41.77;99631.19;4484193;32;34436;-58
2021/05/03 00:46:29;;;;;;;6.60;1.42;;;;;;;24.39;41.75;99635.81;4483925;32;33785;-60
2021/05/03 00:48:56;;;;;;;5.78;1.10;;;;;;;24.39;41.72;99645.88;4483979;32;34042;-59
2021/05/03 00:51:23;;;;;;;6.43;1.02;;;;;;;24.39;41.72;99643.16;4473161;32;34807;-59
2021/05/03 00:53:50;;;;;;;5.03;1.25;;;;;;;24.38;41.70;99655.12;4482674;32;34408;-60
2021/05/03 00:56:17;;;;;;;6.43;1.23;;;;;;;24.38;41.72;99660.56;4483526;32;33642;-61
2021/05/03 00:58:44;;;;;;;6.18;1.40;;;;;;;24.38;41.82;99660.56;4482625;32;33275;-59
2021/05/03 01:01:11;;;;;;;5.18;1.48;;;;;;;24.37;41.84;99662.47;4483705;32;33818;-61
2021/05/03 01:03:39;;;;;;;6.87;1.37;;;;;;;24.37;41.79;99662.47;4482289;32;33919;-60
2021/05/03 01:06:06;;;;;;;4.30;1.52;;;;;;;24.38;41.77;99660.56;4483815;32;34769;-60
2021/05/03 01:08:33;;;;;;;5.00;1.30;;;;;;;24.37;41.76;99667.09;4483770;32;33356;-59
2021/05/03 01:11:00;;;;;;;3.92;1.30;;;;;;;24.36;41.75;99657.22;4483505;32;33430;-60
2021/05/03 01:13:27;;;;;;;2.58;1.30;;;;;;;24.36;41.76;99662.69;4483747;32;33915;-59
2021/05/03 01:15:54;;;;;;;4.95;1.23;;;;;;;24.36;41.72;99655.38;4483714;32;33646;-61
2021/05/03 01:18:25;;;;;;;4.90;1.30;;;;;;;24.36;41.75;99654.50;4483589;32;34189;-61
2021/05/03 01:20:58;;;;;;;;;;;;;;;24.35;41.72;99652.84;4483935;32;33877;-61
2021/05/03 01:23:25;;;;;;;5.43;1.27;;;;;;;24.45;41.48;99655.84;4483354;32;34100;-61
2021/05/03 01:25:52;;;;;;;6.25;1.40;;;;;;;24.36;41.50;99670.88;4483504;32;32402;-60
2021/05/03 01:28:19;;;;;;;6.35;1.87;;;;;;;24.34;41.64;99681.16;4483501;32;33024;-60
2021/05/03 01:30:47;;;;;;;5.05;1.35;;;;;;;24.33;41.65;99672.16;4483277;32;34449;-60
2021/05/03 01:33:15;;;;;;;7.75;1.45;;;;;;;24.33;41.64;99693.12;4483028;32;34843;-61
2021/05/03 01:35:44;;;;;;;6.10;1.42;;;;;;;24.34;41.80;99689.34;4483035;32;33689;-61
2021/05/03 01:38:11;;;;;;;4.95;1.23;;;;;;;24.33;41.83;99696.69;4484127;32;33087;-60
2021/05/03 01:40:40;;;;;;;12.10;1.70;;;;;;;24.34;41.79;99700.25;4485243;32;33681;-61
2021/05/03 01:43:22;;;;;;;6.35;1.67;;;;;;;24.34;41.81;99702.97;4485146;32;33806;-60
2021/05/03 01:45:51;;;;;;;8.15;1.30;;;;;;;24.34;41.74;99697.53;4485065;32;33540;-61
2021/05/03 01:48:23;;;;;;;4.97;1.30;;;;;;;24.33;41.74;99701.31;4485397;32;32977;-62
2021/05/03 01:50:50;;;;;;;3.25;1.17;;;;;;;24.33;41.74;99704.03;4485331;32;34766;-61
2021/05/03 01:53:17;;;;;;;3.58;1.00;;;;;;;24.33;41.72;99696.69;4485174;32;34657;-61
2021/05/03 01:55:45;;;;;;;4.32;1.50;;;;;;;24.32;41.69;99699.66;4485301;32;33440;-60
2021/05/03 01:58:13;;;;;;;5.15;1.27;;;;;;;24.31;41.72;99707.03;4485010;32;34122;-61
2021/05/03 02:00:40;;;;;;;4.62;1.33;;;;;;;24.30;41.71;99702.63;4485219;32;33683;-60
2021/05/03 02:03:23;;;;;;;5.00;1.40;;;;;;;24.31;41.68;99700.75;4484909;32;34023;-60
2021/05/03 02:06:00;;;;;;;7.75;1.37;;;;;;;24.31;41.65;99701.56;4485532;32;33517;-60
2021/05/03 02:08:31;;;;;;;4.03;1.37;;;;;;;24.31;41.78;99714.38;4485042;32;33877;-60
2021/05/03 02:10:58;;;;;;;4.32;1.30;;;;;;;24.32;41.70;99705.13;4483728;32;33608;-60
2021/05/03 02:13:26;;;;;;;6.62;1.50;;;;;;;24.30;41.71;99707.25;4484568;32;33868;-61
2021/05/03 02:15:53;;;;;;;5.37;1.20;;;;;;;24.29;41.78;99709.13;4480887;32;33695;-60
2021/05/03 02:18:20;;;;;;;6.90;1.37;;;;;;;24.30;41.73;99713.53;4481614;32;33407;-59
2021/05/03 02:20:47;;;;;;;6.82;1.30;;;;;;;24.30;41.78;99718.16;4484920;32;34621;-57
2021/05/03 02:23:15;;;;;;;9.05;1.40;;;;;;;24.30;41.82;99715.44;4482031;32;33922;-59
2021/05/03 02:25:42;;;;;;;4.75;1.40;;;;;;;24.29;41.79;99711.03;4469117;32;33687;-59
2021/05/03 02:28:10;;;;;;;4.78;1.23;;;;;;;24.28;41.80;99712.94;4469275;32;33396;-59
2021/05/03 02:30:37;;;;;;;5.20;1.65;;;;;;;24.28;41.79;99710.19;4469539;32;33764;-59
2021/05/03 02:33:05;;;;;;;6.30;1.73;;;;;;;24.28;41.77;99709.38;4474242;32;34804;-59
2021/05/03 02:35:33;;;;;;;6.95;1.08;;;;;;;24.28;41.76;99712.09;4484825;32;34417;-60
2021/05/03 02:38:08;;;;;;;4.00;1.20;;;;;;;24.29;41.73;99708.31;4484927;32;33539;-59
2021/05/03 02:40:36;;;;;;;3.83;1.55;;;;;;;24.28;41.72;99712.94;4484163;32;33723;-60
2021/05/03 02:43:03;;;;;;;4.25;1.52;;;;;;;24.27;41.67;99708.53;4484874;32;33900;-61
2021/05/03 02:45:30;;;;;;;4.07;1.30;;;;;;;24.27;41.75;99707.72;4484876;32;33640;-61
2021/05/03 02:47:58;;;;;;;4.37;1.37;;;;;;;24.26;41.75;99715.06;4469031;32;34206;-60
2021/05/03 02:50:25;;;;;;;3.70;1.27;;;;;;;24.26;41.75;99709.63;4468654;32;34784;-61
2021/05/03 02:52:52;;;;;;;4.60;1.20;;;;;;;24.26;41.73;99714.25;4478342;32;33712;-60
2021/05/03 02:55:20;;;;;;;4.95;1.10;;;;;;;24.26;41.73;99720.53;4484590;32;33942;-61
2021/05/03 02:57:47;;;;;;;2.97;1.40;;;;;;;24.25;41.71;99729.78;4482366;32;33937;-60
2021/05/03 03:00:28;;;;;;;8.80;1.45;;;;;;;24.25;41.71;99732.50;4479161;32;34313;-59
2021/05/03 03:02:56;;;;;;;3.65;1.30;;;;;;;24.27;41.75;99733.09;4484609;32;34774;-58
2021/05/03 03:05:23;;;;;;;6.53;1.65;;;;;;;24.25;41.86;99729.78;4484646;32;33785;-59
2021/05/03 03:07:50;;;;;;;3.92;1.52;;;;;;;24.25;41.84;99729.78;4484571;32;34061;-59
2021/05/03 03:10:21;;;;;;;5.12;1.20;;;;;;;24.25;41.79;99723.47;4480075;32;34754;-59
2021/05/03 03:12:48;;;;;;;3.78;0.95;;;;;;;24.24;41.84;99722.62;4468983;32;34082;-60
2021/05/03 03:15:18;;;;;;;5.07;1.20;;;;;;;24.25;41.80;99726.19;4468797;32;33339;-59
2021/05/03 03:17:49;;;;;;;5.22;1.10;;;;;;;24.25;41.75;99734.37;4472635;32;33267;-60
2021/05/03 03:20:16;;;;;;;6.53;1.10;;;;;;;24.25;41.72;99732.50;4484839;32;34524;-60
2021/05/03 03:22:43;;;;;;;3.30;1.30;;;;;;;24.24;41.79;99747.19;4484269;31;33836;-60
2021/05/03 03:25:11;;;;;;;4.25;1.30;;;;;;;24.24;41.78;99762.72;4484554;32;33773;-59
2021/05/03 03:27:38;;;;;;;4.07;1.37;;;;;;;24.23;41.89;99767.34;4484458;32;34081;-59
2021/05/03 03:30:06;;;;;;;3.78;1.45;;;;;;;24.23;41.87;99763.78;4484745;32;33775;-59
2021/05/03 03:32:33;;;;;;;5.60;1.65;;;;;;;24.23;41.82;99772.78;4484606;32;34839;-59
2021/05/03 03:35:01;;;;;;;6.53;1.35;;;;;;;24.22;41.83;99768.41;4484598;32;33857;-59
2021/05/03 03:37:28;;;;;;;3.45;1.10;;;;;;;24.22;41.82;99768.41;4484407;32;34321;-59
2021/05/03 03:39:55;;;;;;;4.20;1.10;;;;;;;24.23;41.81;99769.22;4484590;32;33400;-59
2021/05/03 03:42:22;;;;;;;6.18;1.00;;;;;;;24.22;41.81;99782.03;4484451;32;34942;-59
2021/05/03 03:44:49;;;;;;;5.22;1.50;;;;;;;24.21;41.79;99783.09;4484305;32;33698;-59
2021/05/03 03:47:17;;;;;;;4.97;1.10;;;;;;;24.22;41.85;99794.84;4476800;32;34062;-60
2021/05/03 03:49:44;;;;;;;2.85;1.00;;;;;;;24.20;41.88;99797.78;4468938;32;33595;-59
2021/05/03 03:52:11;;;;;;;3.12;1.37;;;;;;;24.20;41.82;99792.31;4468579;32;34629;-59
2021/05/03 03:54:39;;;;;;;3.35;1.17;;;;;;;24.19;41.85;99790.66;4468693;32;34382;-60
2021/05/03 03:57:06;;;;;;;3.97;1.70;;;;;;;24.19;41.84;99793.38;4468669;32;33375;-60
2021/05/03 03:59:38;;;;;;;3.05;1.05;;;;;;;24.19;41.89;99802.41;4468609;32;33537;-60
2021/05/03 04:02:06;;;;;;;3.90;1.20;;;;;;;24.17;41.84;99804.53;4467635;32;34814;-58
2021/05/03 04:04:35;;;;;;;3.55;1.12;;;;;;;24.17;41.88;99807.25;4468514;32;33769;-59
2021/05/03 04:09:51;;;;;;;4.82;1.35;;;;;;;24.17;41.85;99812.72;4468444;32;34677;-60
2021/05/03 04:12:47;;;;;;;2.08;0.82;;;;;;;24.17;41.85;99820.91;4468575;32;34683;-60
2021/05/03 04:26:14;;;;;;;11.70;1.50;;;;;;;24.12;41.84;99831.66;4468568;32;33786;-58
2021/05/03 04:28:46;;;;;;;5.75;1.55;;;;;;;24.13;41.90;99843.41;4468342;32;33151;-59
2021/05/03 04:31:14;;;;;;;5.93;1.37;;;;;;;24.12;41.98;99839.84;4468163;32;33897;-58
2021/05/03 04:33:41;;;;;;;3.67;1.15;;;;;;;24.12;41.96;99848.03;4473494;32;33816;-60
2021/05/03 04:36:11;;;;;;;4.72;1.30;;;;;;;24.13;41.94;99849.69;4483920;32;33806;-61
2021/05/03 04:38:39;;;;;;;5.55;1.30;;;;;;;24.15;41.89;99849.44;4484079;32;34797;-61
2021/05/03 04:41:06;;;;;;;2.28;0.95;;;;;;;24.14;41.94;99842.31;4483976;32;34698;-60
2021/05/03 04:43:33;;;;;;;3.05;1.20;;;;;;;24.14;41.92;99842.31;4483775;32;33646;-60
2021/05/03 04:46:01;;;;;;;4.28;1.30;;;;;;;24.13;41.86;99841.50;4484052;32;33775;-61
2021/05/03 04:48:28;;;;;;;9.30;1.02;;;;;;;24.15;41.73;99853.03;4483960;32;33343;-61
2021/05/03 04:50:55;;;;;;;5.15;1.33;;;;;;;24.13;41.85;99844.22;4484017;32;33977;-61
2021/05/03 04:53:22;;;;;;;6.47;1.20;;;;;;;24.14;42.00;99848.59;4482482;32;33896;-61
2021/05/03 04:55:50;;;;;;;1.85;1.00;;;;;;;24.15;41.98;99860.34;4483798;32;34662;-60
2021/05/03 04:58:18;;;;;;;3.10;1.12;;;;;;;24.13;41.97;99863.31;4483931;32;34127;-60
2021/05/03 05:00:45;;;;;;;3.83;1.25;;;;;;;24.14;41.97;99869.59;4483854;32;33875;-61
2021/05/03 05:03:12;;;;;;;4.75;1.08;;;;;;;24.15;41.96;99868.53;4483821;32;33921;-61
2021/05/03 05:05:39;;;;;;;4.65;1.05;;;;;;;24.13;41.98;99868.75;4483791;32;34531;-60
2021/05/03 05:08:06;;;;;;;5.15;1.10;;;;;;;24.14;42.02;99878.59;4483790;32;34772;-60
2021/05/03 05:10:33;;;;;;;4.15;1.52;;;;;;;24.13;42.01;99874.22;4483740;32;34550;-60
2021/05/03 05:13:00;;;;;;;5.22;1.37;;;;;;;24.12;41.98;99880.72;4481860;32;34201;-60
2021/05/03 05:15:29;;;;;;;6.45;1.30;;;;;;;24.13;41.92;99892.47;4484065;32;34703;-61
2021/05/03 05:17:57;;;;;;;3.80;1.00;;;;;;;24.13;41.87;99889.75;4483726;32;34379;-61
2021/05/03 05:20:24;;;;;;;2.37;1.00;;;;;;;24.12;41.87;99894.37;4483710;32;33756;-60
2021/05/03 05:22:51;;;;;;;4.37;1.20;;;;;;;24.13;41.92;99890.56;4481712;32;33817;-60
2021/05/03 05:25:18;;;;;;;6.05;1.48;;;;;;;24.12;41.92;99894.37;4483558;32;33835;-60
2021/05/03 05:27:45;;;;;;;5.87;1.55;;;;;;;24.12;41.95;99888.91;4483590;32;33395;-61
2021/05/03 05:30:13;;;;;;;3.40;1.10;;;;;;;24.12;42.01;99899.81;4483405;32;33877;-60
2021/05/03 05:32:40;;;;;;;4.82;1.30;;;;;;;24.12;42.04;99908.00;4480282;32;94776;-60
2021/05/03 05:35:09;;;;;;;3.90;1.08;;;;;;;24.12;41.93;99908.00;4483422;32;34407;-61
2021/05/03 05:37:36;;;;;;;18.23;1.67;;;;;;;24.12;41.91;99913.44;4483364;32;33990;-60
2021/05/03 05:40:04;;;;;;;6.47;1.10;;;;;;;24.12;42.04;99916.16;4483193;32;33800;-60
2021/05/03 05:42:32;;;;;;;4.60;1.23;;;;;;;24.12;42.03;99916.16;4483222;32;34676;-61
2021/05/03 05:44:59;;;;;;;7.70;1.27;;;;;;;24.12;41.99;99923.53;4483556;32;33921;-59
2021/05/03 05:47:27;;;;;;;5.95;1.35;;;;;;;24.11;42.03;99919.13;4483516;32;33034;-61
2021/05/03 05:49:54;;;;;;;7.62;1.02;;;;;;;24.11;42.02;99930.03;4483179;32;33502;-62
2021/05/03 05:52:22;;;;;;;4.85;1.50;;;;;;;24.10;42.05;99928.34;4483397;32;33654;-59
2021/05/03 05:54:49;;;;;;;4.60;1.00;;;;;;;24.10;42.09;99937.34;4483210;32;33503;-61
2021/05/03 05:57:16;;;;;;;7.90;1.35;;;;;;;24.10;41.99;99921.00;4482987;32;33006;-61
2021/05/03 05:59:43;;;;;;;5.62;1.37;;;;;;;24.10;41.91;99941.97;4483139;32;33749;-61
2021/05/03 06:02:10;;;;;;;5.78;1.20;;;;;;;24.10;42.00;99944.72;4483087;32;35931;-58
2021/05/03 06:04:38;;;;;;;4.28;1.17;;;;;;;24.11;42.00;99932.75;4482816;32;33508;-61
2021/05/03 06:07:05;;;;;;;7.20;1.55;;;;;;;24.10;42.00;99944.72;4483330;32;33817;-61
2021/05/03 06:09:52;;;;;;;6.35;1.20;;;;;;;24.10;41.95;99944.72;4481635;32;33771;-55
2021/05/03 06:12:19;;;;;;;2.97;1.05;;;;;;;24.10;42.00;99951.00;4482844;32;33143;-61
2021/05/03 06:14:46;;;;;;;6.05;0.98;;;;;;;24.09;41.96;99946.59;4482873;32;33654;-61
2021/05/03 06:17:15;;;;;;;7.32;1.35;;;;;;;24.10;42.01;99952.88;4482558;32;33206;-60
2021/05/03 06:19:50;;;;;;;5.47;1.10;;;;;;;24.10;41.95;99961.06;4476641;32;33849;-59
2021/05/03 06:22:18;;;;;;;4.07;1.20;;;;;;;24.10;42.09;99963.78;4482353;32;35091;-59
2021/05/03 06:24:46;;;;;;;5.15;1.23;;;;;;;24.10;42.11;99974.69;4482913;32;33721;-60
2021/05/03 06:27:13;;;;;;;4.78;1.12;;;;;;;24.10;42.08;99970.06;4476393;32;33338;-59
2021/05/03 06:29:40;;;;;;;7.78;1.20;;;;;;;24.10;42.11;99977.41;4469112;32;33398;-59
2021/05/03 06:32:07;;;;;;;4.32;1.23;;;;;;;24.09;42.09;99976.59;4468968;32;33800;-60
2021/05/03 06:34:36;;;;;;;5.20;1.20;;;;;;;24.11;42.09;99990.00;4469188;32;33492;-59
2021/05/03 06:37:08;;;;;;;12.15;2.92;;;;;;;24.11;42.03;99981.84;4469297;32;34108;-59
2021/05/03 06:39:35;;;;;;;11.60;2.85;;;;;;;24.08;38.60;99983.09;4478755;32;34474;-59
2021/05/03 06:42:02;;;;;;;10.10;2.95;;;;;;;24.04;38.21;99986.50;4484752;32;33812;-59
2021/05/03 06:44:30;;;;;;;7.90;2.22;;;;;;;24.01;38.86;99995.13;4484695;32;33827;-59
2021/05/03 06:46:59;;;;;;;6.53;1.90;;;;;;;23.98;39.10;99996.44;4484562;32;34106;-60
2021/05/03 06:49:26;;;;;;;6.30;2.25;;;;;;;23.97;39.40;99999.34;4483476;32;34017;-59
2021/05/03 06:51:54;;;;;;;6.18;2.08;;;;;;;23.97;39.44;100005.66;4484726;32;34986;-60
2021/05/03 06:54:21;;;;;;;7.25;2.20;;;;;;;23.96;39.61;100009.44;4484764;32;34590;-59
2021/05/03 06:56:48;;;;;;;7.32;2.10;;;;;;;23.93;39.68;100015.34;4484787;32;33027;-59
2021/05/03 06:59:15;;;;;;;5.93;1.95;;;;;;;23.94;39.71;100019.75;4484676;32;33804;-59
2021/05/03 07:01:43;;;;;;;7.25;2.10;;;;;;;23.94;39.75;100022.47;4484701;32;33524;-59
2021/05/03 07:04:10;;;;;;;4.75;1.92;;;;;;;23.93;39.77;100024.34;4470539;32;33582;-60
2021/05/03 07:06:38;;;;;;;7.07;2.10;;;;;;;23.93;39.79;100032.53;4484680;32;34288;-59
2021/05/03 07:09:09;;;;;;;21.95;2.08;;;;;;;23.94;39.78;100025.19;4484509;32;35154;-58
2021/05/03 07:11:36;;;;;;;4.53;1.80;;;;;;;23.95;39.74;100028.75;4484603;32;33853;-60
2021/05/03 07:14:04;;;;;;;8.40;1.92;;;;;;;23.95;39.76;100029.56;4484499;32;33330;-60
2021/05/03 07:16:31;;;;;;;6.00;1.75;;;;;;;23.95;39.78;100028.75;4477840;32;33487;-58
2021/05/03 07:18:58;;;;;;;7.55;1.75;;;;;;;23.96;39.76;100030.41;4484618;32;33788;-59
2021/05/03 07:21:26;;;;;;;5.00;1.83;;;;;;;23.96;39.79;100033.97;4484461;31;33897;-59
2021/05/03 07:23:53;;;;;;;6.30;1.90;;;;;;;23.97;39.93;100043.84;4484695;32;34455;-58
2021/05/03 07:26:20;;;;;;;6.22;1.85;;;;;;;23.97;39.93;100043.84;4484539;32;34027;-59
2021/05/03 07:28:48;;;;;;;5.37;2.12;;;;;;;23.98;39.96;100040.03;4484297;32;34913;-60
2021/05/03 07:31:15;;;;;;;5.30;1.62;;;;;;;23.98;39.97;100050.94;4484246;32;34750;-60
2021/05/03 07:33:42;;;;;;;9.73;1.95;;;;;;;23.98;40.07;100045.50;4484460;32;34762;-59
2021/05/03 07:36:09;;;;;;;11.95;2.72;;;;;;;23.99;40.00;100060.78;4484104;32;33277;-63
2021/05/03 07:38:36;;;;;;;13.75;3.28;;;;;;;24.01;39.84;100052.38;4484425;32;34508;-62
2021/05/03 07:41:04;;;;;;;14.02;3.92;;;;;;;24.02;39.46;100057.63;4484472;32;34588;-63
2021/05/03 07:43:32;;;;;;;14.93;3.58;;;;;;;24.03;39.42;100067.47;4482005;32;33768;-58
2021/05/03 07:46:02;;;;;;;18.12;3.65;;;;;;;24.06;39.16;100067.00;4477629;32;33178;-59
2021/05/03 07:48:29;;;;;;;13.95;3.40;;;;;;;24.07;38.13;100065.13;4483774;32;34402;-60
2021/05/03 07:50:57;;;;;;;17.95;4.07;;;;;;;24.07;38.27;100062.41;4481793;32;34554;-59
2021/05/03 07:53:24;;;;;;;16.17;4.32;;;;;;;24.07;38.37;100068.69;4483959;32;33539;-60
2021/05/03 07:55:51;;;;;;;17.02;3.90;;;;;;;24.09;38.44;100073.91;4483159;32;34362;-60
2021/05/03 07:58:18;;;;;;;15.02;3.78;;;;;;;24.10;38.67;100072.81;4474891;32;34749;-54
2021/05/03 08:00:47;;;;;;;14.32;4.20;;;;;;;24.11;38.66;100077.25;4483923;32;34541;-54
2021/05/03 08:03:16;;;;;;;12.68;3.37;;;;;;;24.11;38.82;100083.53;4477366;32;33640;-55
2021/05/03 08:05:44;;;;;;;14.38;3.28;;;;;;;24.11;39.05;100080.81;4470816;32;33269;-57
2021/05/03 08:08:11;;;;;;;16.83;4.10;;;;;;;24.13;39.14;100077.84;4470175;32;34610;-54
2021/05/03 08:10:39;;;;;;;13.10;3.28;;;;;;;24.13;39.37;100078.69;4483997;32;34487;-57
2021/05/03 08:13:06;;;;;;;11.75;4.18;;;;;;;24.14;39.48;100085.78;4483853;32;34298;-56
2021/05/03 08:15:33;;;;;;;13.23;3.65;;;;;;;24.15;39.56;100076.56;4484073;32;33323;-59
2021/05/03 08:18:03;;;;;;;13.10;3.50;;;;;;;24.16;39.65;100091.03;4470833;32;33898;-59
2021/05/03 08:20:30;;;;;;;9.95;3.30;;;;;;;24.17;39.69;100087.25;4467934;32;33824;-58
2021/05/03 08:22:57;;;;;;;10.35;2.90;;;;;;;24.18;39.74;100091.63;4468421;32;33931;-59
2021/05/03 08:25:26;;;;;;;16.02;3.25;;;;;;;24.16;39.87;100086.41;4468095;32;33268;-58
2021/05/03 08:27:56;;;;;;;12.75;3.30;;;;;;;24.17;39.95;100082.62;4468462;32;33844;-53
2021/05/03 08:30:24;;;;;;;10.00;3.22;;;;;;;24.18;40.04;100100.66;4468147;32;33901;-59
2021/05/03 08:32:51;;;;;;;11.57;3.50;;;;;;;24.18;40.12;100084.28;4468076;32;33682;-55
2021/05/03 08:35:18;;;;;;;10.52;3.30;;;;;;;24.19;40.18;100088.66;4468054;32;33293;-59
2021/05/03 08:37:46;;;;;;;11.70;3.20;;;;;;;24.18;40.19;100114.28;4468260;32;34608;-60
2021/05/03 08:40:13;;;;;;;12.70;3.15;;;;;;;24.19;40.26;100091.41;4477612;32;33906;-59
2021/05/03 08:42:42;;;;;;;9.82;3.08;;;;;;;24.19;40.29;100077.78;4483382;32;34463;-59
2021/05/03 08:45:10;;;;;;;8.13;2.92;;;;;;;24.22;40.29;100083.84;4477710;32;33235;-58
2021/05/03 08:47:41;;;;;;;7.37;2.83;;;;;;;24.21;40.33;100077.56;4467255;32;33803;-60
2021/05/03 08:50:13;;;;;;;13.55;3.25;;;;;;;24.22;40.45;100075.66;4468040;32;33886;-60
2021/05/03 08:52:45;;;;;;;9.57;2.80;;;;;;;24.21;40.55;100090.38;4467000;32;33562;-60
2021/05/03 08:55:16;;;;;;;10.52;2.95;;;;;;;24.23;40.48;100078.16;4481456;32;33356;-60
2021/05/03 08:57:43;;;;;;;14.23;3.65;;;;;;;24.22;40.61;100078.41;4482683;32;33611;-59
2021/05/03 09:00:12;;;;;;;14.95;3.35;;;;;;;24.24;40.62;100077.09;4482887;32;33629;-59
2021/05/03 09:02:40;;;;;;;14.70;3.58;;;;;;;24.24;40.66;100087.16;4483624;32;33696;-56
2021/05/03 09:05:08;;;;;;;15.50;3.55;;;;;;;24.24;40.74;100088.00;4483337;32;33309;-54
2021/05/03 09:07:35;;;;;;;14.02;3.00;;;;;;;24.24;40.78;100087.16;4482259;32;34537;-55
2021/05/03 09:10:12;;;;;;;15.32;4.18;;;;;;;24.25;40.81;100105.19;4482823;32;33922;-56
2021/05/03 09:12:40;;;;;;;9.32;3.45;;;;;;;24.23;40.84;100091.78;4482546;32;34476;-54
2021/05/03 09:15:07;;;;;;;19.92;3.42;;;;;;;24.26;40.82;100085.06;4483364;32;33352;-60
2021/05/03 09:17:42;;;;;;;14.75;3.45;;;;;;;24.24;40.94;100096.19;4483054;32;34800;-59
2021/05/03 09:20:13;;;;;;;12.60;3.20;;;;;;;24.25;40.96;100097.00;4482229;32;33911;-57
2021/05/03 09:23:06;;;;;;;16.92;3.53;;;;;;;24.24;41.00;100092.63;4481803;32;34239;-60
2021/05/03 09:25:38;;;;;;;12.07;3.00;;;;;;;24.24;41.04;100096.19;4478641;32;33337;-57
2021/05/03 09:28:24;;;;;;;16.65;3.87;;;;;;;24.26;41.01;100096.81;4483242;32;33451;-58
2021/05/03 09:30:54;;;;;;;15.80;3.33;;;;;;;24.27;41.02;100090.28;4479821;32;34608;-58
2021/05/03 09:33:24;;;;;;;15.02;4.15;;;;;;;24.26;41.02;100095.97;4476830;32;33727;-61
2021/05/03 09:36:01;;;;;;;13.25;3.25;;;;;;;24.26;41.12;100091.34;4483282;32;33360;-60
2021/05/03 09:38:37;;;;;;;11.50;3.08;;;;;;;24.25;41.13;100077.91;4483000;32;33746;-59
2021/05/03 09:41:07;;;;;;;13.50;2.80;;;;;;;24.26;41.14;100079.62;4475058;32;33779;-61
2021/05/03 09:43:34;;;;;;;7.80;2.80;;;;;;;24.24;41.23;100081.72;4482853;32;33682;-59
2021/05/03 09:46:24;;;;;;;8.68;3.10;;;;;;;24.25;41.17;100075.19;4481566;32;33986;-60
2021/05/03 09:48:55;;;;;;;11.07;2.95;;;;;;;24.24;41.25;100079.00;4471736;32;34614;-60
2021/05/03 09:51:34;;;;;;;13.27;3.37;;;;;;;24.24;41.20;100079.81;4482900;32;33896;-60
2021/05/03 09:54:02;;;;;;;10.27;3.50;;;;;;;24.26;41.20;100079.62;4482839;32;33205;-60
2021/05/03 09:57:01;;;;;;;14.32;3.03;;;;;;;24.24;41.29;100087.16;4482805;32;33318;-59
2021/05/03 09:59:41;;;;;;;9.77;2.95;;;;;;;24.26;41.28;100083.16;4476377;32;33941;-60
2021/05/03 10:05:00;;;;;;;13.50;3.30;;;;;;;24.34;41.10;100061.06;4485285;32;33743;-61
2021/05/03 10:07:28;;;;;;;9.45;2.58;;;;;;;24.27;41.30;100073.94;4484935;32;34486;-60
2021/05/03 10:10:06;;;;;;;12.35;2.80;;;;;;;24.24;41.40;100063.47;4484856;32;33647;-60
2021/05/03 10:12:33;;;;;;;13.15;3.28;;;;;;;24.24;41.39;100079.00;4484969;32;33933;-58
2021/05/03 10:15:03;;;;;;;10.77;3.00;;;;;;;24.23;41.41;100069.16;4485072;32;33661;-60
2021/05/03 10:17:30;;;;;;;10.82;3.45;;;;;;;24.23;41.44;100074.59;4484562;32;34098;-60
2021/05/03 10:19:59;;;;;;;8.20;2.72;;;;;;;24.25;41.42;100067.00;4484932;32;34478;-57
2021/05/03 10:22:27;;;;;;;8.75;2.70;;;;;;;24.25;41.43;100081.50;4484625;31;33723;-56
2021/05/03 10:24:59;;;;;;;8.60;2.70;;;;;;;24.24;41.44;100071.63;4484910;32;34488;-59
2021/05/03 10:27:26;;;;;;;10.07;2.95;;;;;;;24.24;41.49;100059.91;4484975;32;33281;-60
2021/05/03 10:30:19;;;;;;;8.93;2.85;;;;;;;24.27;41.49;100070.38;4470465;32;34590;-54
2021/05/03 10:33:06;;;;;;;12.95;2.90;;;;;;;24.30;41.39;100061.75;4484607;32;34000;-59
2021/05/03 10:35:45;;;;;;;9.10;2.78;;;;;;;24.29;41.46;100062.78;4478397;32;33861;-59
2021/05/03 10:38:28;;;;;;;8.10;2.30;;;;;;;24.26;41.56;100075.00;4468737;32;34080;-60
2021/05/03 10:40:56;;;;;;;10.68;2.87;;;;;;;24.27;41.58;100062.19;4483172;32;33883;-61
2021/05/03 10:43:26;;;;;;;9.65;3.37;;;;;;;24.25;41.55;100053.38;4484660;32;33843;-61
2021/05/03 10:52:00;;;;;;;11.12;3.20;;;;;;;24.26;41.32;100058.63;4484657;32;34607;-56
2021/05/03 10:54:36;;;;;;;11.45;2.78;;;;;;;24.28;41.26;100066.56;4479544;32;34244;-56
2021/05/03 10:57:08;;;;;;;12.10;3.03;;;;;;;24.24;41.37;100059.91;4484683;32;33709;-60
2021/05/03 10:59:49;;;;;;;12.02;3.35;;;;;;;24.25;41.39;100039.75;4483362;32;33402;-60
2021/05/03 11:02:17;;;;;;;12.77;3.10;;;;;;;24.24;41.39;100038.91;4484496;32;34825;-56
2021/05/03 11:05:12;;;;;;;13.10;3.03;;;;;;;24.24;41.38;100038.91;4484484;32;33842;-54
2021/05/03 11:08:04;;;;;;;10.65;2.92;;;;;;;24.27;41.43;100048.56;4484542;32;33771;-56
2021/05/03 11:11:06;;;;;;;7.90;2.47;;;;;;;24.27;41.43;100045.81;4484137;32;33278;-60
2021/05/03 11:13:37;;;;;;;13.48;3.05;;;;;;;24.26;41.46;100047.72;4484532;32;34586;-54
2021/05/03 11:16:30;;;;;;;14.15;3.55;;;;;;;24.22;41.55;100046.50;4484263;32;34496;-60
2021/05/03 11:18:59;;;;;;;10.15;2.80;;;;;;;24.26;41.53;100041.44;4484233;32;35088;-60
2021/05/03 11:21:47;;;;;;;10.87;2.87;;;;;;;24.23;41.57;100039.16;4483040;32;33274;-57
2021/05/03 11:24:30;;;;;;;7.62;2.45;;;;;;;24.26;41.62;100035.97;4483058;32;33692;-59
2021/05/03 11:29:34;;;;;;;8.32;3.12;;;;;;;24.23;41.67;100039.97;4484236;32;33500;-62
2021/05/03 11:32:02;;;;;;;9.38;2.90;;;;;;;24.23;41.58;100033.69;4484021;32;33351;-61
2021/05/03 11:34:40;;;;;;;11.23;2.72;;;;;;;24.23;41.48;100030.97;4484448;32;35251;-61
2021/05/03 11:37:18;;;;;;;15.10;2.83;;;;;;;24.23;41.51;100036.44;4468738;32;33465;-61
2021/05/03 11:40:47;;;;;;;11.15;2.95;;;;;;;24.22;41.52;100037.50;4469096;32;34325;-61
2021/05/03 11:45:14;;;;;;;10.85;2.97;;;;;;;24.21;41.46;100035.84;4468784;32;33892;-61
2021/05/03 11:47:42;;;;;;;11.82;2.70;;;;;;;24.22;41.42;100030.16;4468643;32;34673;-62
2021/05/03 11:50:10;;;;;;;11.18;2.80;;;;;;;24.19;41.39;100042.31;4468738;32;33706;-60
2021/05/03 11:52:38;;;;;;;7.95;2.42;;;;;;;24.19;41.34;100046.94;4468581;32;33341;-62
2021/05/03 11:55:06;;;;;;;11.50;3.55;;;;;;;24.17;41.28;100033.56;4468318;32;33586;-61
2021/05/03 11:57:36;;;;;;;8.00;2.62;;;;;;;24.17;41.25;100030.00;4477428;32;34982;-60
2021/05/03 12:00:05;;;;;;;10.68;3.03;;;;;;;24.16;41.17;100045.53;4484275;32;33621;-61
2021/05/03 12:02:33;;;;;;;;;;;;;;;24.17;41.13;100040.91;4484192;32;33309;-57
2021/05/03 12:05:00;;;;;;;8.90;2.78;;;;;;;24.27;40.93;100043.09;4484138;32;33699;-60
2021/05/03 12:07:29;;;;;;;8.10;2.40;;;;;;;24.19;41.07;100036.87;4483931;32;33864;-60